Time;durP1;ratioP1;P1;durP2;ratioP2;P2;SDS_P1;SDS_P2;PMS_P1;PMS_P2;Temp;Humidity;BMP_temperature;BMP_pressure;BME280_temperature;BME280_humidity;BME280_pressure;Samples;Min_cycle;Max_cycle;Signal;HPM_P1;HPM_P2
2021/04/19 00:01:55;;;;;;;3.17;2.87;;;17.90;49.30;;;;;;4948714;28;20554;-49
2021/04/19 00:04:23;;;;;;;3.60;3.00;;;17.90;49.30;;;;;;4948744;28;20451;-47
2021/04/19 00:06:50;;;;;;;2.70;2.50;;;17.80;49.30;;;;;;4955103;28;20451;-49
2021/04/19 00:09:17;;;;;;;4.70;3.00;;;17.80;49.40;;;;;;4955042;28;20447;-48
2021/04/19 00:11:44;;;;;;;3.40;3.10;;;17.80;49.40;;;;;;4954924;28;20557;-49
2021/04/19 00:14:11;;;;;;;2.73;2.53;;;17.90;49.50;;;;;;4949989;28;20501;-49
2021/04/19 00:16:38;;;;;;;2.57;2.33;;;17.80;49.50;;;;;;4954834;28;20447;-53
2021/04/19 00:19:05;;;;;;;2.97;2.77;;;17.80;49.50;;;;;;4955160;28;20477;-51
2021/04/19 00:21:33;;;;;;;2.63;2.53;;;17.70;49.50;;;;;;4954371;28;20537;-48
2021/04/19 00:24:00;;;;;;;3.13;2.93;;;17.80;49.60;;;;;;4954960;28;20470;-48
2021/04/19 00:26:28;;;;;;;4.70;3.20;;;17.70;49.60;;;;;;4954607;28;20442;-50
2021/04/19 00:28:55;;;;;;;2.77;2.57;;;17.70;49.70;;;;;;4954450;28;20473;-49
2021/04/19 00:31:21;;;;;;;3.27;2.97;;;17.70;49.70;;;;;;4954831;28;20470;-50
2021/04/19 00:33:49;;;;;;;4.43;2.63;;;17.70;49.80;;;;;;4954889;28;20457;-51
2021/04/19 00:36:15;;;;;;;3.07;2.77;;;17.70;49.80;;;;;;4954366;28;20458;-48
2021/04/19 00:38:43;;;;;;;3.03;2.83;;;17.60;49.80;;;;;;4954496;28;20442;-50
2021/04/19 00:41:11;;;;;;;3.40;3.10;;;17.60;49.80;;;;;;4954097;28;20540;-50
2021/04/19 00:43:38;;;;;;;3.00;2.80;;;17.60;49.90;;;;;;4954149;28;20572;-49
2021/04/19 00:46:05;;;;;;;5.03;2.80;;;17.60;49.90;;;;;;4954116;28;20443;-50
2021/04/19 00:48:32;;;;;;;2.97;2.77;;;17.50;50.00;;;;;;4954299;28;20471;-51
2021/04/19 00:50:59;;;;;;;2.97;2.67;;;17.50;50.00;;;;;;4954713;28;20462;-53
2021/04/19 00:53:27;;;;;;;2.73;2.53;;;17.50;50.00;;;;;;4954692;28;20482;-47
2021/04/19 00:55:54;;;;;;;3.33;2.83;;;17.50;50.10;;;;;;4953978;28;20530;-50
2021/04/19 00:58:23;;;;;;;4.07;2.83;;;17.40;50.10;;;;;;4954105;28;20450;-46
2021/04/19 01:00:50;;;;;;;2.93;2.73;;;17.40;50.10;;;;;;4953287;28;20564;-49
2021/04/19 01:03:17;;;;;;;4.43;3.20;;;17.40;50.20;;;;;;4953266;28;20554;-47
2021/04/19 01:05:45;;;;;;;3.27;2.97;;;17.40;50.20;;;;;;4953107;28;20442;-49
2021/04/19 01:08:11;;;;;;;4.00;2.93;;;17.30;50.30;;;;;;4953185;28;20505;-50
2021/04/19 01:10:38;;;;;;;2.67;2.57;;;17.30;50.30;;;;;;4952938;28;20504;-47
2021/04/19 01:13:06;;;;;;;3.10;2.77;;;17.30;50.40;;;;;;4953091;28;20546;-50
2021/04/19 01:15:33;;;;;;;3.37;3.07;;;17.30;50.40;;;;;;4966130;28;20552;-46
2021/04/19 01:18:00;;;;;;;3.53;2.43;;;17.30;51.10;;;;;;4968739;28;20450;-52
2021/04/19 01:20:29;;;;;;;4.50;2.87;;;17.30;50.50;;;;;;4964101;28;20454;-47
2021/04/19 01:23:01;;;;;;;4.10;2.97;;;17.20;50.40;;;;;;4969597;28;20438;-49
2021/04/19 01:25:29;;;;;;;2.90;2.70;;;17.20;50.60;;;;;;4970286;28;20450;-50
2021/04/19 01:27:56;;;;;;;4.60;3.03;;;17.20;50.70;;;;;;4970244;28;20526;-52
2021/04/19 01:30:24;;;;;;;3.37;2.90;;;17.20;50.60;;;;;;4965366;28;20553;-51
2021/04/19 01:32:51;;;;;;;2.50;2.30;;;17.10;50.60;;;;;;4969577;28;20446;-47
2021/04/19 01:35:19;;;;;;;7.50;2.90;;;17.10;50.70;;;;;;4969430;28;20442;-52
2021/04/19 01:37:46;;;;;;;4.40;2.80;;;17.10;50.80;;;;;;4970033;28;20445;-47
2021/04/19 01:40:15;;;;;;;2.73;2.53;;;17.00;50.80;;;;;;4969212;28;20478;-48
2021/04/19 01:42:41;;;;;;;2.73;2.53;;;17.00;50.90;;;;;;4969815;28;20442;-52
2021/04/19 01:45:09;;;;;;;3.43;3.13;;;17.00;50.90;;;;;;4969787;28;20466;-51
2021/04/19 01:47:36;;;;;;;3.00;2.80;;;17.00;51.00;;;;;;4964358;28;20466;-51
2021/04/19 01:50:09;;;;;;;2.60;2.50;;;17.00;50.90;;;;;;4964833;28;20486;-51
2021/04/19 01:52:36;;;;;;;2.90;2.70;;;16.90;50.90;;;;;;4964614;28;20469;-48
2021/04/19 01:55:04;;;;;;;3.20;2.90;;;16.90;51.00;;;;;;4964527;28;20450;-47
2021/04/19 01:57:32;;;;;;;2.80;2.60;;;16.80;51.00;;;;;;4964930;28;20450;-51
2021/04/19 01:59:58;;;;;;;2.73;2.53;;;16.80;51.10;;;;;;4964483;28;20509;-46
2021/04/19 02:02:30;;;;;;;2.97;2.70;;;16.90;51.10;;;;;;4965031;28;20567;-48
2021/04/19 02:05:01;;;;;;;3.20;3.00;;;16.80;51.20;;;;;;4965039;28;20512;-48
2021/04/19 02:07:33;;;;;;;2.97;2.77;;;16.80;51.20;;;;;;4964945;28;20535;-50
2021/04/19 02:10:04;;;;;;;3.60;3.27;;;16.80;51.20;;;;;;4967931;28;20457;-50
2021/04/19 02:12:38;;;;;;;3.40;3.10;;;16.70;51.20;;;;;;4969656;28;20528;-52
2021/04/19 02:15:07;;;;;;;3.13;2.93;;;16.70;51.20;;;;;;4969410;28;20512;-48
2021/04/19 02:17:40;;;;;;;3.10;2.90;;;16.70;51.20;;;;;;4969435;28;20446;-48
2021/04/19 02:20:12;;;;;;;2.80;2.60;;;16.70;51.20;;;;;;4969655;28;20450;-53
2021/04/19 02:22:40;;;;;;;3.13;2.83;;;16.70;51.30;;;;;;4969212;28;20520;-52
2021/04/19 02:25:14;;;;;;;3.63;2.87;;;16.60;51.40;;;;;;4969138;28;20435;-50
2021/04/19 02:27:45;;;;;;;2.87;2.67;;;16.60;51.40;;;;;;4969218;28;20480;-49
2021/04/19 02:30:18;;;;;;;4.97;2.80;;;16.60;51.40;;;;;;4964854;28;20501;-52
2021/04/19 02:32:47;;;;;;;3.33;3.13;;;16.60;51.40;;;;;;4969692;28;20442;-51
2021/04/19 02:35:16;;;;;;;4.50;2.83;;;16.60;51.50;;;;;;4968978;28;20439;-48
2021/04/19 02:37:43;;;;;;;2.87;2.50;;;16.60;51.50;;;;;;4969153;28;20446;-50
2021/04/19 02:40:10;;;;;;;3.03;2.77;;;16.50;52.10;;;;;;4969070;28;20447;-50
2021/04/19 02:42:39;;;;;;;3.43;2.97;;;16.50;51.50;;;;;;4968864;28;20528;-48
2021/04/19 02:45:08;;;;;;;3.10;2.80;;;16.50;51.60;;;;;;4968464;28;20534;-48
2021/04/19 02:47:35;;;;;;;4.17;3.20;;;16.50;51.70;;;;;;4968800;28;20533;-51
2021/04/19 02:50:02;;;;;;;5.00;2.70;;;16.50;51.70;;;;;;4968706;28;20533;-48
2021/04/19 02:52:29;;;;;;;2.93;2.70;;;16.50;51.70;;;;;;4969185;28;20512;-50
2021/04/19 02:54:56;;;;;;;2.97;2.77;;;16.40;51.70;;;;;;4968635;28;20438;-48
2021/04/19 02:57:24;;;;;;;2.87;2.63;;;16.40;51.70;;;;;;4968864;28;20458;-47
2021/04/19 02:59:52;;;;;;;3.50;3.07;;;16.40;51.90;;;;;;4968506;28;20500;-50
2021/04/19 03:02:20;;;;;;;3.33;3.03;;;16.30;51.90;;;;;;4967909;28;20490;-47
2021/04/19 03:04:47;;;;;;;4.07;2.90;;;16.30;51.90;;;;;;4967106;28;20471;-47
2021/04/19 03:07:14;;;;;;;3.73;3.13;;;16.30;52.00;;;;;;4968595;28;20446;-47
2021/04/19 03:09:42;;;;;;;3.73;3.20;;;16.30;52.00;;;;;;4967195;28;20466;-48
2021/04/19 03:12:10;;;;;;;3.63;2.90;;;16.20;51.90;;;;;;4957187;28;20459;-50
2021/04/19 03:14:39;;;;;;;5.13;3.07;;;16.30;52.00;;;;;;4948984;28;20516;-46
2021/04/19 03:17:07;;;;;;;4.20;3.20;;;16.30;52.00;;;;;;4949350;28;20538;-48
2021/04/19 03:19:36;;;;;;;3.13;2.90;;;16.20;52.00;;;;;;4949331;28;20447;-48
2021/04/19 03:22:03;;;;;;;3.47;3.20;;;16.20;52.10;;;;;;4947880;28;20479;-50
2021/04/19 03:24:30;;;;;;;3.07;2.87;;;16.20;52.10;;;;;;4945780;28;20478;-45
2021/04/19 03:26:57;;;;;;;3.40;3.10;;;16.20;52.00;;;;;;4945829;28;20443;-49
2021/04/19 03:29:25;;;;;;;3.33;3.10;;;16.20;52.10;;;;;;4948276;28;20546;-51
2021/04/19 03:31:53;;;;;;;4.23;3.20;;;16.10;52.00;;;;;;4945789;28;20439;-49
2021/04/19 03:34:22;;;;;;;3.60;3.30;;;16.10;52.10;;;;;;4945754;28;20444;-48
2021/04/19 03:36:52;;;;;;;3.70;3.40;;;16.10;52.10;;;;;;4946029;28;20439;-48
2021/04/19 03:39:19;;;;;;;3.33;3.13;;;16.10;52.20;;;;;;4945271;28;20511;-50
2021/04/19 03:41:47;;;;;;;3.93;3.47;;;16.10;52.20;;;;;;4940294;28;20495;-49
2021/04/19 03:44:17;;;;;;;5.20;3.43;;;16.00;52.20;;;;;;4944970;28;20467;-46
2021/04/19 03:46:44;;;;;;;3.70;3.33;;;16.00;52.20;;;;;;4945506;28;20451;-49
2021/04/19 03:49:12;;;;;;;3.80;3.40;;;16.00;52.20;;;;;;4945333;28;20463;-50
2021/04/19 03:51:40;;;;;;;4.67;3.90;;;16.00;52.30;;;;;;4945606;28;20466;-46
2021/04/19 03:54:07;;;;;;;4.00;3.60;;;16.00;52.30;;;;;;4945173;28;20443;-49
2021/04/19 03:56:34;;;;;;;4.93;3.80;;;16.00;52.30;;;;;;4946118;28;20471;-46
2021/04/19 03:59:03;;;;;;;3.97;3.60;;;16.00;52.40;;;;;;4946180;28;20635;-50
2021/04/19 04:01:30;;;;;;;4.03;3.63;;;16.00;52.40;;;;;;4945888;28;20475;-51
2021/04/19 04:03:58;;;;;;;4.40;3.90;;;16.00;52.40;;;;;;4946909;28;20447;-68
2021/04/19 04:06:31;;;;;;;4.23;3.90;;;15.90;52.40;;;;;;4959130;28;20488;-66
2021/04/19 04:08:59;;;;;;;4.23;3.83;;;15.90;52.50;;;;;;4954765;28;20446;-67
2021/04/19 04:11:28;;;;;;;6.47;4.50;;;15.90;52.60;;;;;;4945621;28;20447;-54
2021/04/19 04:13:55;;;;;;;6.80;4.27;;;15.90;52.60;;;;;;4946138;28;20550;-66
2021/04/19 04:16:21;;;;;;;5.57;4.17;;;15.90;52.80;;;;;;4946544;28;20475;-66
2021/04/19 04:18:48;;;;;;;9.03;4.63;;;15.90;52.80;;;;;;4947192;28;20479;-51
2021/04/19 04:21:15;;;;;;;4.10;3.70;;;15.90;52.90;;;;;;4947378;28;20507;-52
2021/04/19 04:23:43;;;;;;;4.43;3.73;;;15.90;53.10;;;;;;4947379;28;20489;-51
2021/04/19 04:26:09;;;;;;;4.73;4.10;;;15.90;53.40;;;;;;4947449;28;20474;-51
2021/04/19 04:28:37;;;;;;;5.80;4.10;;;15.90;53.40;;;;;;4947319;28;20447;-52
2021/04/19 04:31:07;;;;;;;4.50;4.10;;;15.90;53.50;;;;;;4947967;28;20451;-50
2021/04/19 04:33:34;;;;;;;4.30;3.70;;;15.90;53.60;;;;;;4948079;28;20530;-51
2021/04/19 04:36:01;;;;;;;12.30;4.13;;;15.90;54.30;;;;;;4948087;28;20448;-51
2021/04/19 04:38:31;;;;;;;7.77;4.10;;;15.80;54.20;;;;;;4947810;28;20451;-47
2021/04/19 04:40:58;;;;;;;5.17;4.67;;;15.80;53.70;;;;;;4947974;28;20426;-52
2021/04/19 04:43:27;;;;;;;4.10;3.57;;;15.80;53.80;;;;;;4960559;28;20482;-51
2021/04/19 04:45:56;;;;;;;4.60;4.20;;;15.80;53.60;;;;;;4967254;28;20461;-54
2021/04/19 04:48:24;;;;;;;5.20;4.00;;;15.80;53.70;;;;;;4967458;28;20520;-53
2021/04/19 04:50:54;;;;;;;7.73;4.63;;;15.80;53.80;;;;;;4967450;28;20454;-49
2021/04/19 04:53:25;;;;;;;8.73;4.50;;;15.80;53.70;;;;;;4969862;28;20435;-48
2021/04/19 04:55:52;;;;;;;7.80;5.03;;;15.80;53.80;;;;;;4970559;28;20468;-52
2021/04/19 04:58:19;;;;;;;4.97;4.47;;;15.80;53.90;;;;;;4970788;28;20522;-52
2021/04/19 05:00:45;;;;;;;8.17;4.60;;;15.80;54.50;;;;;;4953723;28;20470;-53
2021/04/19 05:03:15;;;;;;;6.83;5.13;;;15.80;54.00;;;;;;4951477;28;20534;-52
2021/04/19 05:05:42;;;;;;;5.93;4.20;;;15.80;53.90;;;;;;4951127;28;20545;-47
2021/04/19 05:08:10;;;;;;;6.90;4.60;;;15.80;54.00;;;;;;4951395;28;20439;-53
2021/04/19 05:10:38;;;;;;;8.70;4.43;;;15.80;54.00;;;;;;4950925;28;20482;-53
2021/04/19 05:13:11;;;;;;;6.67;4.70;;;15.80;54.10;;;;;;4950759;28;20439;-50
2021/04/19 05:15:42;;;;;;;6.50;4.50;;;15.80;54.00;;;;;;4950831;28;20443;-50
2021/04/19 05:18:12;;;;;;;6.63;4.67;;;15.80;54.10;;;;;;4950460;28;20584;-50
2021/04/19 05:20:40;;;;;;;5.60;4.10;;;15.80;54.10;;;;;;4948552;28;20458;-50
2021/04/19 05:23:07;;;;;;;5.67;4.87;;;15.80;54.10;;;;;;4950826;28;20533;-53
2021/04/19 05:25:34;;;;;;;5.93;4.30;;;15.80;54.10;;;;;;4950494;28;20526;-51
2021/04/19 05:28:01;;;;;;;9.67;4.60;;;15.80;54.30;;;;;;4950931;28;20531;-47
2021/04/19 05:30:28;;;;;;;7.43;5.13;;;15.80;54.10;;;;;;4950655;28;20439;-53
2021/04/19 05:32:58;;;;;;;8.23;5.13;;;15.80;54.10;;;;;;4950857;28;20467;-47
2021/04/19 05:35:26;;;;;;;12.10;5.10;;;15.80;54.10;;;;;;4950824;28;20497;-49
2021/04/19 05:37:53;;;;;;;8.03;5.60;;;15.80;54.10;;;;;;4951010;28;20471;-51
2021/04/19 05:40:20;;;;;;;7.00;5.63;;;15.80;54.00;;;;;;4950561;28;20490;-49
2021/04/19 05:42:47;;;;;;;9.43;5.03;;;15.80;54.10;;;;;;4948465;28;20555;-52
2021/04/19 05:45:15;;;;;;;9.07;5.60;;;15.80;54.00;;;;;;4950468;28;20522;-53
2021/04/19 05:47:43;;;;;;;8.87;6.37;;;15.80;54.10;;;;;;4950385;28;20525;-51
2021/04/19 05:50:12;;;;;;;7.40;5.70;;;15.80;54.10;;;;;;4952813;28;20446;-50
2021/04/19 05:52:40;;;;;;;8.57;5.73;;;15.80;54.20;;;;;;4968699;28;20500;-47
2021/04/19 05:55:08;;;;;;;10.87;6.80;;;15.80;54.20;;;;;;4968136;28;20450;-52
2021/04/19 05:57:37;;;;;;;11.47;6.33;;;15.80;54.10;;;;;;4968067;28;20530;-48
2021/04/19 06:00:07;;;;;;;10.40;6.20;;;15.80;54.20;;;;;;4968945;28;20519;-53
2021/04/19 06:02:39;;;;;;;10.53;6.60;;;15.80;54.20;;;;;;4969263;28;20501;-52
2021/04/19 06:05:09;;;;;;;9.70;6.30;;;15.80;54.20;;;;;;4969596;28;20446;-48
2021/04/19 06:07:41;;;;;;;10.63;6.20;;;15.80;54.20;;;;;;4968002;28;20470;-49
2021/04/19 06:10:12;;;;;;;9.33;6.67;;;15.80;54.30;;;;;;4967984;28;20439;-48
2021/04/19 06:12:42;;;;;;;8.17;6.33;;;15.80;54.20;;;;;;4969688;28;20519;-51
2021/04/19 06:15:12;;;;;;;14.40;7.40;;;15.80;54.20;;;;;;4969358;28;20537;-49
2021/04/19 06:17:41;;;;;;;11.20;7.43;;;15.80;54.20;;;;;;4969433;28;20438;-50
2021/04/19 06:20:10;;;;;;;11.30;7.20;;;15.80;54.20;;;;;;4969524;28;20442;-48
2021/04/19 06:22:37;;;;;;;16.23;6.80;;;15.80;54.20;;;;;;4969022;28;20486;-49
2021/04/19 06:25:05;;;;;;;11.53;7.57;;;15.80;54.20;;;;;;4969287;28;20446;-53
2021/04/19 06:27:32;;;;;;;9.17;6.90;;;15.80;54.20;;;;;;4969355;28;20478;-53
2021/04/19 06:30:14;;;;;;;11.33;7.07;;;15.80;54.20;;;;;;4969493;28;20474;-50
2021/04/19 06:32:42;;;;;;;10.97;7.73;;;15.80;54.70;;;;;;4969268;28;20502;-49
2021/04/19 06:35:11;;;;;;;12.13;8.00;;;15.80;54.10;;;;;;4968529;28;20434;-52
2021/04/19 06:37:38;;;;;;;11.63;7.77;;;15.80;54.10;;;;;;4966527;28;20518;-51
2021/04/19 06:40:07;;;;;;;9.73;7.27;;;15.80;54.10;;;;;;4966503;28;20450;-54
2021/04/19 06:42:33;;;;;;;11.37;8.10;;;15.80;54.10;;;;;;4967485;28;20537;-51
2021/04/19 06:45:01;;;;;;;12.30;7.30;;;15.80;54.10;;;;;;4966986;28;20495;-53
2021/04/19 06:47:29;;;;;;;14.20;7.93;;;15.80;54.00;;;;;;4966836;28;20454;-53
2021/04/19 06:49:57;;;;;;;9.43;7.20;;;15.80;54.10;;;;;;4968223;28;20450;-51
2021/04/19 06:52:25;;;;;;;14.10;8.07;;;15.90;54.10;;;;;;4968399;28;20501;-50
2021/04/19 06:54:52;;;;;;;12.90;8.07;;;15.80;54.00;;;;;;4968433;28;20438;-52
2021/04/19 06:57:19;;;;;;;12.53;8.57;;;15.80;54.00;;;;;;4968996;28;20438;-47
2021/04/19 06:59:46;;;;;;;12.33;8.03;;;15.80;54.00;;;;;;4968360;28;20457;-50
2021/04/19 07:02:16;;;;;;;10.23;7.43;;;15.80;54.00;;;;;;4968413;28;20473;-51
2021/04/19 07:04:43;;;;;;;12.30;7.53;;;15.90;54.00;;;;;;4968426;28;20458;-52
2021/04/19 07:07:11;;;;;;;11.73;7.53;;;15.90;54.10;;;;;;4968306;28;20442;-53
2021/04/19 07:09:37;;;;;;;13.30;8.17;;;15.90;54.10;;;;;;4966326;28;20450;-51
2021/04/19 07:12:08;;;;;;;10.77;7.90;;;15.90;54.00;;;;;;4965372;28;20435;-52
2021/04/19 07:14:38;;;;;;;13.70;8.47;;;15.90;54.10;;;;;;4964435;28;20426;-52
2021/04/19 07:17:04;;;;;;;11.77;8.03;;;15.90;54.10;;;;;;4965421;28;20466;-53
2021/04/19 07:19:32;;;;;;;16.93;7.90;;;15.90;54.00;;;;;;4967666;28;20462;-53
2021/04/19 07:22:00;;;;;;;10.53;8.37;;;15.90;54.10;;;;;;4968881;28;20496;-52
2021/04/19 07:24:27;;;;;;;11.30;7.77;;;15.90;54.10;;;;;;4968627;28;20495;-52
2021/04/19 07:26:54;;;;;;;12.63;8.40;;;15.90;54.00;;;;;;4968321;28;20434;-50
2021/04/19 07:29:21;;;;;;;11.77;8.40;;;15.90;54.00;;;;;;4968535;28;20435;-49
2021/04/19 07:31:50;;;;;;;13.83;8.47;;;15.90;54.00;;;;;;4968534;28;20450;-48
2021/04/19 07:34:17;;;;;;;12.40;8.00;;;15.90;53.90;;;;;;4968047;28;20451;-51
2021/04/19 07:36:49;;;;;;;11.60;8.33;;;15.90;53.90;;;;;;4968398;28;20465;-49
2021/04/19 07:39:17;;;;;;;13.70;8.23;;;15.90;53.80;;;;;;4968181;28;20482;-51
2021/04/19 07:41:48;;;;;;;13.93;8.93;;;16.00;54.00;;;;;;4968118;28;20536;-50
2021/04/19 07:44:38;;;;;;;14.83;8.47;;;16.00;53.90;;;;;;4968194;28;20473;-53
2021/04/19 07:47:19;;;;;;;14.13;9.03;;;16.00;53.80;;;;;;4968301;28;20478;-48
2021/04/19 07:50:01;;;;;;;12.00;8.60;;;16.10;53.60;;;;;;4967946;28;20453;-52
2021/04/19 07:52:28;;;;;;;14.47;8.70;;;16.20;53.50;;;;;;4968131;28;20479;-52
2021/04/19 07:55:12;;;;;;;11.50;8.50;;;16.30;53.30;;;;;;4968099;28;20454;-52
2021/04/19 07:57:59;;;;;;;16.40;9.10;;;16.30;53.20;;;;;;4967748;28;20445;-53
2021/04/19 08:00:30;;;;;;;12.13;8.87;;;16.40;53.20;;;;;;4967799;28;20450;-52
2021/04/19 08:03:01;;;;;;;16.33;9.83;;;16.50;53.10;;;;;;4967686;28;20528;-50
2021/04/19 08:05:40;;;;;;;13.13;8.87;;;16.50;53.00;;;;;;4968121;28;20433;-51
2021/04/19 08:08:08;;;;;;;11.03;8.53;;;16.60;52.90;;;;;;4968043;28;20431;-50
2021/04/19 08:10:37;;;;;;;11.57;8.03;;;16.60;52.70;;;;;;4967581;28;20447;-48
2021/04/19 08:13:06;;;;;;;32.20;13.33;;;16.70;52.70;;;;;;4967513;28;20492;-47
2021/04/19 08:15:33;;;;;;;44.97;26.37;;;17.10;54.20;;;;;;4967584;28;20587;-50
2021/04/19 08:18:01;;;;;;;50.17;29.33;;;16.80;52.20;;;;;;4967735;28;20522;-59
2021/04/19 08:20:28;;;;;;;49.30;31.80;;;16.00;54.00;;;;;;4965407;28;20442;-55
2021/04/19 08:23:04;;;;;;;50.67;29.00;;;15.30;55.40;;;;;;4962700;28;20555;-52
2021/04/19 08:25:35;;;;;;;52.70;31.17;;;15.00;56.50;;;;;;4962641;28;20477;-51
2021/04/19 08:28:03;;;;;;;57.97;31.77;;;15.10;56.60;;;;;;4966064;28;20446;-53
2021/04/19 08:30:30;;;;;;;61.03;33.20;;;15.10;56.40;;;;;;4966085;28;20438;-53
2021/04/19 08:32:57;;;;;;;63.23;35.57;;;15.10;56.40;;;;;;4965988;28;20442;-61
2021/04/19 08:35:25;;;;;;;69.67;38.73;;;15.00;56.60;;;;;;4965878;28;20504;-62
2021/04/19 08:37:52;;;;;;;70.27;36.90;;;15.00;57.00;;;;;;4966167;28;20536;-62
2021/04/19 08:40:19;;;;;;;73.43;40.80;;;15.10;56.60;;;;;;4966191;28;20442;-61
2021/04/19 08:42:46;;;;;;;75.43;40.87;;;14.90;56.80;;;;;;4965889;28;20532;-61
2021/04/19 08:45:13;;;;;;;71.00;40.40;;;14.70;57.20;;;;;;4965939;28;20446;-61
2021/04/19 08:47:40;;;;;;;72.40;38.60;;;14.80;57.50;;;;;;4966573;28;20442;-62
2021/04/19 08:50:08;;;;;;;69.27;40.33;;;14.90;58.00;;;;;;4965589;28;20540;-61
2021/04/19 08:52:36;;;;;;;70.20;40.67;;;14.90;57.00;;;;;;4965730;28;20470;-61
2021/04/19 08:55:05;;;;;;;68.70;40.57;;;14.80;57.30;;;;;;4965227;28;20457;-62
2021/04/19 08:57:33;;;;;;;74.53;42.90;;;14.90;57.50;;;;;;4965190;28;20435;-62
2021/04/19 09:00:00;;;;;;;64.13;39.73;;;14.50;58.10;;;;;;4965373;28;20462;-62
2021/04/19 09:02:27;;;;;;;60.00;38.07;;;14.70;57.80;;;;;;4965107;28;20485;-62
2021/04/19 09:05:05;;;;;;;62.63;36.70;;;14.90;58.00;;;;;;4964189;28;20500;-61
2021/04/19 09:07:33;;;;;;;67.50;40.00;;;15.00;57.80;;;;;;4965501;28;20445;-61
2021/04/19 09:10:01;;;;;;;73.53;36.37;;;15.30;56.40;;;;;;4965453;28;20471;-61
2021/04/19 09:12:29;;;;;;;82.67;38.30;;;15.20;57.40;;;;;;4965146;28;20533;-62
2021/04/19 09:15:16;;;;;;;66.50;38.77;;;15.30;58.20;;;;;;4964883;28;20514;-62
2021/04/19 09:17:43;;;;;;;64.77;39.27;;;15.40;57.70;;;;;;4964820;28;20458;-62
2021/04/19 09:20:11;;;;;;;65.17;40.07;;;15.40;57.30;;;;;;4965146;28;20466;-61
2021/04/19 09:22:38;;;;;;;72.40;40.00;;;15.70;57.00;;;;;;4965273;28;20569;-61
2021/04/19 09:25:09;;;;;;;68.50;35.93;;;15.70;57.70;;;;;;4964701;28;20474;-62
2021/04/19 09:27:43;;;;;;;57.10;34.80;;;15.70;57.30;;;;;;4964533;28;20442;-62
2021/04/19 09:30:26;;;;;;;53.67;33.17;;;15.90;55.50;;;;;;4965314;28;20462;-61
2021/04/19 09:33:22;;;;;;;63.87;36.43;;;15.70;54.70;;;;;;4964768;28;20480;-61
2021/04/19 09:35:50;;;;;;;65.33;34.20;;;15.80;55.30;;;;;;4964436;28;20434;-62
2021/04/19 09:38:33;;;;;;;53.10;33.43;;;15.90;56.20;;;;;;4963945;28;20550;-62
2021/04/19 09:41:01;;;;;;;54.80;33.33;;;15.90;55.80;;;;;;4964178;28;20476;-62
2021/04/19 09:43:31;;;;;;;51.73;32.27;;;15.90;56.00;;;;;;4964747;28;20577;-62
2021/04/19 09:45:59;;;;;;;45.87;29.50;;;16.30;56.00;;;;;;4963974;28;20439;-62
2021/04/19 09:48:39;;;;;;;47.20;30.73;;;16.70;54.90;;;;;;4964969;28;20462;-61
2021/04/19 09:51:12;;;;;;;47.80;30.80;;;16.90;54.70;;;;;;4964817;28;20531;-62
2021/04/19 09:53:39;;;;;;;47.13;30.27;;;17.20;54.20;;;;;;4964764;28;20466;-63
2021/04/19 09:56:07;;;;;;;90.43;32.80;;;17.00;53.30;;;;;;4964238;28;20439;-54
2021/04/19 09:58:37;;;;;;;84.37;32.87;;;17.20;55.80;;;;;;4964617;28;20439;-56
2021/04/19 10:01:04;;;;;;;63.60;29.40;;;17.80;55.50;;;;;;4964851;28;20447;-55
2021/04/19 10:03:32;;;;;;;55.80;32.47;;;18.40;55.40;;;;;;4964411;28;20498;-56
2021/04/19 10:06:01;;;;;;;46.73;33.70;;;18.40;51.80;;;;;;4964020;28;20508;-55
2021/04/19 10:08:28;;;;;;;58.40;33.70;;;18.10;51.10;;;;;;4964812;28;20481;-53
2021/04/19 10:10:55;;;;;;;55.20;34.73;;;18.10;51.80;;;;;;4964486;28;20513;-54
2021/04/19 10:13:30;;;;;;;51.93;34.80;;;18.20;51.00;;;;;;4964494;28;20438;-56
2021/04/19 10:16:03;;;;;;;52.67;36.80;;;18.20;50.70;;;;;;4963667;28;20481;-55
2021/04/19 10:18:30;;;;;;;53.10;34.10;;;18.70;50.90;;;;;;4964582;28;20560;-53
2021/04/19 10:20:57;;;;;;;47.47;33.13;;;19.30;49.10;;;;;;4964524;28;20508;-55
2021/04/19 10:23:31;;;;;;;47.50;34.83;;;19.40;48.80;;;;;;4964257;28;20501;-53
2021/04/19 10:25:58;;;;;;;49.63;34.20;;;19.20;48.90;;;;;;4964241;28;20446;-52
2021/04/19 10:28:30;;;;;;;45.37;31.70;;;19.20;49.20;;;;;;4964146;28;20480;-55
2021/04/19 10:31:10;;;;;;;42.70;29.50;;;19.00;49.70;;;;;;4963898;28;20504;-56
2021/04/19 10:33:37;;;;;;;41.47;30.33;;;19.20;48.50;;;;;;4964221;28;20502;-54
2021/04/19 10:36:16;;;;;;;42.80;30.27;;;19.20;48.20;;;;;;4963810;28;20420;-55
2021/04/19 10:38:43;;;;;;;47.77;31.70;;;19.30;47.60;;;;;;4963828;28;20487;-55
2021/04/19 10:41:09;;;;;;;55.37;32.20;;;19.40;48.00;;;;;;4963852;28;20588;-55
2021/04/19 10:43:38;;;;;;;45.70;31.30;;;19.00;49.10;;;;;;4963675;28;20549;-55
2021/04/19 10:46:21;;;;;;;47.30;31.40;;;19.20;49.30;;;;;;4963459;28;20475;-55
2021/04/19 10:48:48;;;;;;;37.73;28.63;;;18.80;49.70;;;;;;4963647;28;20425;-55
2021/04/19 10:51:17;;;;;;;31.70;25.57;;;19.80;47.70;;;;;;4963899;28;20448;-55
2021/04/19 10:53:44;;;;;;;34.63;26.00;;;20.50;46.30;;;;;;4963650;28;20489;-56
2021/04/19 10:56:20;;;;;;;35.77;25.30;;;20.90;45.80;;;;;;4963545;28;20417;-54
2021/04/19 10:58:48;;;;;;;35.57;24.20;;;20.80;45.20;;;;;;4964031;28;20522;-56
2021/04/19 11:01:23;;;;;;;33.43;25.73;;;21.40;45.60;;;;;;4958704;28;20417;-55
2021/04/19 11:03:50;;;;;;;28.17;22.13;;;21.10;45.50;;;;;;4962063;28;20448;-55
2021/04/19 11:06:18;;;;;;;31.47;22.60;;;21.50;45.60;;;;;;4963310;28;20417;-55
2021/04/19 11:08:58;;;;;;;31.77;22.30;;;21.90;44.90;;;;;;4963830;28;20437;-55
2021/04/19 11:11:41;;;;;;;27.60;19.50;;;21.80;44.20;;;;;;4964074;28;20530;-55
2021/04/19 11:14:11;;;;;;;25.87;19.90;;;22.10;43.70;;;;;;4963130;28;20499;-56
2021/04/19 11:16:48;;;;;;;24.47;18.30;;;22.30;43.60;;;;;;4963779;28;20493;-51
2021/04/19 11:19:28;;;;;;;19.77;16.90;;;22.80;42.40;;;;;;4944457;28;20543;-56
2021/04/19 11:21:55;;;;;;;26.83;20.50;;;23.20;41.50;;;;;;4944384;28;20560;-55
2021/04/19 11:24:22;;;;;;;20.40;17.03;;;23.00;40.80;;;;;;4943837;28;20451;-56
2021/04/19 11:26:49;;;;;;;19.53;16.40;;;24.40;41.40;;;;;;4944930;28;20451;-58
2021/04/19 11:29:34;;;;;;;18.87;14.70;;;26.50;37.10;;;;;;4944548;28;20451;-61
2021/04/19 11:32:01;;;;;;;16.60;13.33;;;27.80;35.20;;;;;;4943787;28;20431;-56
2021/04/19 11:34:34;;;;;;;15.53;13.10;;;29.50;31.70;;;;;;4949078;28;20465;-57
2021/04/19 11:37:27;;;;;;;12.57;11.43;;;31.90;29.20;;;;;;4963635;28;20434;-58
2021/04/19 11:39:57;;;;;;;13.23;11.83;;;33.20;27.70;;;;;;4963978;28;20466;-58
2021/04/19 11:42:28;;;;;;;11.10;10.10;;;30.90;27.80;;;;;;4963824;28;20473;-57
2021/04/19 11:44:56;;;;;;;10.87;9.20;;;32.70;27.60;;;;;;4963659;28;20530;-57
2021/04/19 11:47:22;;;;;;;10.57;9.50;;;33.50;26.40;;;;;;4963796;28;20450;-57
2021/04/19 11:49:51;;;;;;;8.40;7.80;;;33.00;26.00;;;;;;4962675;28;20466;-57
2021/04/19 11:52:18;;;;;;;9.50;8.60;;;30.80;27.30;;;;;;4963157;28;20466;-57
2021/04/19 11:54:45;;;;;;;11.27;10.27;;;29.70;29.00;;;;;;4962693;28;20442;-57
2021/04/19 11:57:12;;;;;;;13.00;11.70;;;29.00;30.00;;;;;;4963589;28;20439;-57
2021/04/19 11:59:40;;;;;;;13.47;12.27;;;27.40;31.60;;;;;;4963532;28;20551;-57
2021/04/19 12:02:08;;;;;;;18.63;13.77;;;26.60;32.80;;;;;;4962748;28;20447;-57
2021/04/19 12:04:34;;;;;;;10.47;9.77;;;29.00;31.20;;;;;;4962476;28;20442;-57
2021/04/19 12:07:02;;;;;;;13.93;12.73;;;31.60;27.80;;;;;;4962960;28;20464;-56
2021/04/19 12:09:28;;;;;;;15.10;13.60;;;29.10;29.40;;;;;;4963378;28;20450;-56
2021/04/19 12:11:55;;;;;;;15.17;13.77;;;28.10;32.10;;;;;;4963663;28;20492;-57
2021/04/19 12:14:22;;;;;;;11.40;10.40;;;28.00;32.00;;;;;;4962779;28;20450;-57
2021/04/19 12:16:49;;;;;;;11.60;8.60;;;30.90;29.00;;;;;;4963323;28;20491;-57
2021/04/19 12:19:17;;;;;;;9.03;8.43;;;33.10;25.80;;;;;;4963373;28;20446;-61
2021/04/19 12:21:44;;;;;;;7.87;7.37;;;33.40;26.20;;;;;;4963440;28;20450;-61
2021/04/19 12:24:11;;;;;;;6.78;6.20;;;35.30;24.40;;;;;;4962487;28;20478;-62
2021/04/19 12:26:38;;;;;;;6.13;5.75;;;36.40;23.60;;;;;;4962782;28;20285;-61
2021/04/19 12:29:11;;;;;;;5.18;4.97;;;37.00;22.90;;;;;;4962994;28;20236;-59
2021/04/19 12:31:38;;;;;;;9.10;8.17;;;36.20;22.30;;;;;;4962817;28;20292;-59
2021/04/19 12:34:05;;;;;;;10.50;9.67;;;31.60;26.60;;;;;;4962839;28;20497;-52
2021/04/19 12:36:33;;;;;;;11.70;10.60;;;30.90;28.50;;;;;;4962605;28;20441;-52
2021/04/19 12:39:01;;;;;;;9.03;8.33;;;28.50;29.40;;;;;;4962841;28;20502;-55
2021/04/19 12:41:28;;;;;;;8.00;7.30;;;31.70;27.80;;;;;;4962552;28;20498;-55
2021/04/19 12:43:55;;;;;;;7.33;6.93;;;35.20;24.10;;;;;;4962444;28;20515;-55
2021/04/19 12:46:24;;;;;;;5.63;5.43;;;36.40;23.00;;;;;;4961780;28;20482;-59
2021/04/19 12:48:51;;;;;;;5.55;5.05;;;36.80;22.70;;;;;;4962142;28;20469;-59